sensor_id;sensor_type;location;lat;lon;timestamp;P1;durP1;ratioP1;P2;durP2;ratioP2
41217;SDS011;26950;50.960;7.138;2023-06-26T00:01:34;6.85;;;5.70;;
41217;SDS011;26950;50.960;7.138;2023-06-26T00:04:01;8.07;;;5.75;;
41217;SDS011;26950;50.960;7.138;2023-06-26T00:06:27;8.30;;;6.00;;
41217;SDS011;26950;50.960;7.138;2023-06-26T00:08:54;8.77;;;6.10;;
41217;SDS011;26950;50.960;7.138;2023-06-26T00:11:21;7.78;;;6.13;;
41217;SDS011;26950;50.960;7.138;2023-06-26T00:13:48;7.63;;;5.78;;
41217;SDS011;26950;50.960;7.138;2023-06-26T00:16:16;9.13;;;6.50;;
41217;SDS011;26950;50.960;7.138;2023-06-26T00:18:42;9.50;;;6.18;;
41217;SDS011;26950;50.960;7.138;2023-06-26T00:21:09;8.25;;;5.90;;
41217;SDS011;26950;50.960;7.138;2023-06-26T00:23:35;8.60;;;6.45;;
41217;SDS011;26950;50.960;7.138;2023-06-26T00:26:02;8.52;;;6.35;;
41217;SDS011;26950;50.960;7.138;2023-06-26T00:28:29;8.38;;;6.45;;
41217;SDS011;26950;50.960;7.138;2023-06-26T00:30:55;7.97;;;6.32;;
41217;SDS011;26950;50.960;7.138;2023-06-26T00:33:23;7.10;;;6.07;;
41217;SDS011;26950;50.960;7.138;2023-06-26T00:35:50;7.85;;;6.55;;
41217;SDS011;26950;50.960;7.138;2023-06-26T00:38:16;9.48;;;6.22;;
41217;SDS011;26950;50.960;7.138;2023-06-26T00:40:43;8.85;;;6.30;;
41217;SDS011;26950;50.960;7.138;2023-06-26T00:43:09;8.20;;;5.85;;
41217;SDS011;26950;50.960;7.138;2023-06-26T00:45:36;8.60;;;6.00;;
41217;SDS011;26950;50.960;7.138;2023-06-26T00:48:02;8.27;;;6.55;;
41217;SDS011;26950;50.960;7.138;2023-06-26T00:50:31;8.73;;;5.78;;
41217;SDS011;26950;50.960;7.138;2023-06-26T00:52:58;8.00;;;6.40;;
41217;SDS011;26950;50.960;7.138;2023-06-26T00:55:25;9.00;;;6.05;;
41217;SDS011;26950;50.960;7.138;2023-06-26T00:57:52;7.47;;;5.95;;
41217;SDS011;26950;50.960;7.138;2023-06-26T01:00:19;10.32;;;5.65;;
41217;SDS011;26950;50.960;7.138;2023-06-26T01:02:45;7.85;;;5.68;;
41217;SDS011;26950;50.960;7.138;2023-06-26T01:05:12;8.90;;;6.00;;
41217;SDS011;26950;50.960;7.138;2023-06-26T01:07:47;8.25;;;5.97;;
41217;SDS011;26950;50.960;7.138;2023-06-26T01:10:14;7.80;;;5.93;;
41217;SDS011;26950;50.960;7.138;2023-06-26T01:12:41;8.63;;;6.05;;
41217;SDS011;26950;50.960;7.138;2023-06-26T01:15:08;7.72;;;5.97;;
41217;SDS011;26950;50.960;7.138;2023-06-26T01:17:36;9.13;;;6.30;;
41217;SDS011;26950;50.960;7.138;2023-06-26T01:20:04;7.60;;;5.70;;
41217;SDS011;26950;50.960;7.138;2023-06-26T01:22:34;8.05;;;6.07;;
41217;SDS011;26950;50.960;7.138;2023-06-26T01:25:12;7.95;;;5.72;;
41217;SDS011;26950;50.960;7.138;2023-06-26T01:27:46;8.52;;;6.28;;
41217;SDS011;26950;50.960;7.138;2023-06-26T01:30:14;8.48;;;6.28;;
41217;SDS011;26950;50.960;7.138;2023-06-26T01:32:42;7.63;;;5.70;;
41217;SDS011;26950;50.960;7.138;2023-06-26T01:35:10;7.47;;;5.72;;
41217;SDS011;26950;50.960;7.138;2023-06-26T01:37:38;6.95;;;5.50;;
41217;SDS011;26950;50.960;7.138;2023-06-26T01:40:05;8.00;;;5.80;;
41217;SDS011;26950;50.960;7.138;2023-06-26T01:42:32;9.10;;;6.05;;
41217;SDS011;26950;50.960;7.138;2023-06-26T01:45:00;6.97;;;5.93;;
41217;SDS011;26950;50.960;7.138;2023-06-26T01:47:31;9.43;;;5.97;;
41217;SDS011;26950;50.960;7.138;2023-06-26T01:50:02;9.32;;;6.03;;
41217;SDS011;26950;50.960;7.138;2023-06-26T01:52:35;8.38;;;5.97;;
41217;SDS011;26950;50.960;7.138;2023-06-26T01:55:09;11.48;;;6.15;;
41217;SDS011;26950;50.960;7.138;2023-06-26T01:57:42;8.45;;;6.00;;
41217;SDS011;26950;50.960;7.138;2023-06-26T02:00:12;7.60;;;5.95;;
41217;SDS011;26950;50.960;7.138;2023-06-26T02:02:42;8.82;;;6.07;;
41217;SDS011;26950;50.960;7.138;2023-06-26T02:05:08;8.90;;;5.80;;
41217;SDS011;26950;50.960;7.138;2023-06-26T02:07:35;8.25;;;6.32;;
41217;SDS011;26950;50.960;7.138;2023-06-26T02:10:01;7.85;;;6.03;;
41217;SDS011;26950;50.960;7.138;2023-06-26T02:12:28;7.05;;;5.40;;
41217;SDS011;26950;50.960;7.138;2023-06-26T02:14:55;8.52;;;5.88;;
41217;SDS011;26950;50.960;7.138;2023-06-26T02:17:22;7.75;;;5.80;;
41217;SDS011;26950;50.960;7.138;2023-06-26T02:19:49;7.40;;;5.72;;
41217;SDS011;26950;50.960;7.138;2023-06-26T02:22:16;8.32;;;5.65;;
41217;SDS011;26950;50.960;7.138;2023-06-26T02:24:43;10.02;;;6.22;;
41217;SDS011;26950;50.960;7.138;2023-06-26T02:27:10;7.07;;;5.55;;
41217;SDS011;26950;50.960;7.138;2023-06-26T02:29:36;7.55;;;5.78;;
41217;SDS011;26950;50.960;7.138;2023-06-26T02:32:04;7.60;;;6.20;;
41217;SDS011;26950;50.960;7.138;2023-06-26T02:34:32;10.40;;;5.70;;
41217;SDS011;26950;50.960;7.138;2023-06-26T02:36:59;7.60;;;5.72;;
41217;SDS011;26950;50.960;7.138;2023-06-26T02:39:26;9.63;;;5.32;;
41217;SDS011;26950;50.960;7.138;2023-06-26T02:41:53;8.02;;;6.20;;
41217;SDS011;26950;50.960;7.138;2023-06-26T02:44:20;8.38;;;5.57;;
41217;SDS011;26950;50.960;7.138;2023-06-26T02:46:46;8.38;;;6.13;;
41217;SDS011;26950;50.960;7.138;2023-06-26T02:49:13;9.35;;;6.03;;
41217;SDS011;26950;50.960;7.138;2023-06-26T02:51:40;10.32;;;5.70;;
41217;SDS011;26950;50.960;7.138;2023-06-26T02:54:07;8.77;;;5.95;;
41217;SDS011;26950;50.960;7.138;2023-06-26T02:56:33;7.65;;;5.85;;
41217;SDS011;26950;50.960;7.138;2023-06-26T02:59:00;11.48;;;6.10;;
41217;SDS011;26950;50.960;7.138;2023-06-26T03:01:26;11.05;;;5.88;;
41217;SDS011;26950;50.960;7.138;2023-06-26T03:03:53;7.78;;;5.55;;
41217;SDS011;26950;50.960;7.138;2023-06-26T03:06:19;7.70;;;5.47;;
41217;SDS011;26950;50.960;7.138;2023-06-26T03:08:47;8.68;;;6.38;;
41217;SDS011;26950;50.960;7.138;2023-06-26T03:11:14;8.40;;;5.93;;
41217;SDS011;26950;50.960;7.138;2023-06-26T03:13:40;8.05;;;6.00;;
41217;SDS011;26950;50.960;7.138;2023-06-26T03:16:07;9.30;;;6.05;;
41217;SDS011;26950;50.960;7.138;2023-06-26T03:18:33;9.20;;;5.80;;
41217;SDS011;26950;50.960;7.138;2023-06-26T03:21:00;9.25;;;5.88;;
41217;SDS011;26950;50.960;7.138;2023-06-26T03:23:26;9.38;;;6.30;;
41217;SDS011;26950;50.960;7.138;2023-06-26T03:25:54;11.13;;;6.50;;
41217;SDS011;26950;50.960;7.138;2023-06-26T03:28:21;8.30;;;6.32;;
41217;SDS011;26950;50.960;7.138;2023-06-26T03:30:47;7.32;;;6.00;;
41217;SDS011;26950;50.960;7.138;2023-06-26T03:33:14;8.23;;;6.13;;
41217;SDS011;26950;50.960;7.138;2023-06-26T03:35:40;9.23;;;6.03;;
41217;SDS011;26950;50.960;7.138;2023-06-26T03:38:07;7.18;;;5.97;;
41217;SDS011;26950;50.960;7.138;2023-06-26T03:40:33;7.72;;;6.07;;
41217;SDS011;26950;50.960;7.138;2023-06-26T03:43:01;7.70;;;6.05;;
41217;SDS011;26950;50.960;7.138;2023-06-26T03:45:28;8.30;;;6.20;;
41217;SDS011;26950;50.960;7.138;2023-06-26T03:47:54;10.55;;;6.55;;
41217;SDS011;26950;50.960;7.138;2023-06-26T03:50:21;7.75;;;6.10;;
41217;SDS011;26950;50.960;7.138;2023-06-26T03:52:47;10.35;;;6.32;;
41217;SDS011;26950;50.960;7.138;2023-06-26T03:55:15;8.63;;;6.57;;
41217;SDS011;26950;50.960;7.138;2023-06-26T03:57:41;8.30;;;6.25;;
41217;SDS011;26950;50.960;7.138;2023-06-26T04:00:10;8.65;;;6.30;;
41217;SDS011;26950;50.960;7.138;2023-06-26T04:02:39;10.07;;;6.63;;
41217;SDS011;26950;50.960;7.138;2023-06-26T04:05:05;7.93;;;5.88;;
41217;SDS011;26950;50.960;7.138;2023-06-26T04:07:32;13.23;;;5.97;;
41217;SDS011;26950;50.960;7.138;2023-06-26T04:09:59;9.52;;;6.30;;
41217;SDS011;26950;50.960;7.138;2023-06-26T04:12:26;8.57;;;6.15;;
41217;SDS011;26950;50.960;7.138;2023-06-26T04:14:52;9.55;;;6.10;;
41217;SDS011;26950;50.960;7.138;2023-06-26T04:17:20;8.15;;;6.10;;
41217;SDS011;26950;50.960;7.138;2023-06-26T04:19:46;11.18;;;6.22;;
41217;SDS011;26950;50.960;7.138;2023-06-26T04:22:13;10.63;;;6.50;;
41217;SDS011;26950;50.960;7.138;2023-06-26T04:24:40;11.82;;;6.50;;
41217;SDS011;26950;50.960;7.138;2023-06-26T04:27:06;9.23;;;5.93;;
41217;SDS011;26950;50.960;7.138;2023-06-26T04:29:33;8.38;;;6.60;;
41217;SDS011;26950;50.960;7.138;2023-06-26T04:31:59;7.40;;;6.28;;
41217;SDS011;26950;50.960;7.138;2023-06-26T04:34:27;8.30;;;6.43;;
41217;SDS011;26950;50.960;7.138;2023-06-26T04:36:57;11.40;;;6.70;;
41217;SDS011;26950;50.960;7.138;2023-06-26T04:39:24;8.23;;;6.05;;
41217;SDS011;26950;50.960;7.138;2023-06-26T04:41:50;9.82;;;6.47;;
41217;SDS011;26950;50.960;7.138;2023-06-26T04:44:17;9.80;;;6.55;;
41217;SDS011;26950;50.960;7.138;2023-06-26T04:46:44;7.60;;;5.88;;
41217;SDS011;26950;50.960;7.138;2023-06-26T04:49:10;9.75;;;6.38;;
41217;SDS011;26950;50.960;7.138;2023-06-26T04:51:38;9.65;;;6.70;;
41217;SDS011;26950;50.960;7.138;2023-06-26T04:54:05;12.18;;;6.50;;
41217;SDS011;26950;50.960;7.138;2023-06-26T04:56:32;8.32;;;6.30;;
41217;SDS011;26950;50.960;7.138;2023-06-26T04:58:59;9.68;;;5.78;;
41217;SDS011;26950;50.960;7.138;2023-06-26T05:01:25;8.18;;;6.15;;
41217;SDS011;26950;50.960;7.138;2023-06-26T05:03:54;11.15;;;6.18;;
41217;SDS011;26950;50.960;7.138;2023-06-26T05:06:20;7.88;;;5.60;;
41217;SDS011;26950;50.960;7.138;2023-06-26T05:08:48;8.90;;;5.60;;
41217;SDS011;26950;50.960;7.138;2023-06-26T05:11:15;8.00;;;5.35;;
41217;SDS011;26950;50.960;7.138;2023-06-26T05:13:41;8.63;;;5.70;;
41217;SDS011;26950;50.960;7.138;2023-06-26T05:16:08;7.95;;;5.68;;
41217;SDS011;26950;50.960;7.138;2023-06-26T05:18:35;8.38;;;5.78;;
41217;SDS011;26950;50.960;7.138;2023-06-26T05:21:02;9.90;;;5.50;;
41217;SDS011;26950;50.960;7.138;2023-06-26T05:23:30;8.82;;;5.57;;
41217;SDS011;26950;50.960;7.138;2023-06-26T05:25:59;8.65;;;5.35;;
41217;SDS011;26950;50.960;7.138;2023-06-26T05:28:27;10.95;;;5.00;;
41217;SDS011;26950;50.960;7.138;2023-06-26T05:30:56;7.60;;;5.35;;
41217;SDS011;26950;50.960;7.138;2023-06-26T05:33:23;12.65;;;5.32;;
41217;SDS011;26950;50.960;7.138;2023-06-26T05:35:52;8.63;;;4.93;;
41217;SDS011;26950;50.960;7.138;2023-06-26T05:38:19;7.47;;;5.00;;
41217;SDS011;26950;50.960;7.138;2023-06-26T05:40:46;8.00;;;5.05;;
41217;SDS011;26950;50.960;7.138;2023-06-26T05:43:14;7.68;;;5.03;;
41217;SDS011;26950;50.960;7.138;2023-06-26T05:45:41;7.75;;;4.97;;
41217;SDS011;26950;50.960;7.138;2023-06-26T05:48:08;9.55;;;5.03;;
41217;SDS011;26950;50.960;7.138;2023-06-26T05:50:35;7.25;;;4.80;;
41217;SDS011;26950;50.960;7.138;2023-06-26T05:53:02;7.85;;;4.65;;
41217;SDS011;26950;50.960;7.138;2023-06-26T05:55:29;7.57;;;4.78;;
41217;SDS011;26950;50.960;7.138;2023-06-26T05:57:56;10.02;;;4.40;;
41217;SDS011;26950;50.960;7.138;2023-06-26T06:00:26;9.93;;;4.63;;
41217;SDS011;26950;50.960;7.138;2023-06-26T06:02:53;5.63;;;4.28;;
41217;SDS011;26950;50.960;7.138;2023-06-26T06:05:20;6.40;;;4.53;;
41217;SDS011;26950;50.960;7.138;2023-06-26T06:07:46;7.72;;;4.50;;
41217;SDS011;26950;50.960;7.138;2023-06-26T06:10:13;7.10;;;4.50;;
41217;SDS011;26950;50.960;7.138;2023-06-26T06:12:40;10.90;;;4.60;;
41217;SDS011;26950;50.960;7.138;2023-06-26T06:15:07;8.98;;;4.70;;
41217;SDS011;26950;50.960;7.138;2023-06-26T06:17:35;7.75;;;4.72;;
41217;SDS011;26950;50.960;7.138;2023-06-26T06:20:02;8.68;;;4.70;;
41217;SDS011;26950;50.960;7.138;2023-06-26T06:22:30;9.82;;;4.57;;
41217;SDS011;26950;50.960;7.138;2023-06-26T06:24:56;8.77;;;4.78;;
41217;SDS011;26950;50.960;7.138;2023-06-26T06:27:22;9.20;;;4.85;;
41217;SDS011;26950;50.960;7.138;2023-06-26T06:29:49;12.02;;;4.63;;
41217;SDS011;26950;50.960;7.138;2023-06-26T06:32:15;8.73;;;4.43;;
41217;SDS011;26950;50.960;7.138;2023-06-26T06:34:43;8.35;;;4.60;;
41217;SDS011;26950;50.960;7.138;2023-06-26T06:37:10;8.10;;;4.65;;
41217;SDS011;26950;50.960;7.138;2023-06-26T06:39:36;9.60;;;4.45;;
41217;SDS011;26950;50.960;7.138;2023-06-26T06:42:03;9.63;;;4.75;;
41217;SDS011;26950;50.960;7.138;2023-06-26T06:44:30;11.63;;;4.90;;
41217;SDS011;26950;50.960;7.138;2023-06-26T06:46:56;9.35;;;4.53;;
41217;SDS011;26950;50.960;7.138;2023-06-26T06:49:23;10.93;;;4.55;;
41217;SDS011;26950;50.960;7.138;2023-06-26T06:51:50;11.40;;;4.85;;
41217;SDS011;26950;50.960;7.138;2023-06-26T06:54:17;11.70;;;4.93;;
41217;SDS011;26950;50.960;7.138;2023-06-26T06:56:44;12.93;;;5.15;;
41217;SDS011;26950;50.960;7.138;2023-06-26T06:59:11;10.95;;;4.32;;
41217;SDS011;26950;50.960;7.138;2023-06-26T07:01:38;8.80;;;4.78;;
41217;SDS011;26950;50.960;7.138;2023-06-26T07:04:05;7.97;;;4.47;;
41217;SDS011;26950;50.960;7.138;2023-06-26T07:06:31;15.65;;;4.88;;
41217;SDS011;26950;50.960;7.138;2023-06-26T07:08:59;11.23;;;4.60;;
41217;SDS011;26950;50.960;7.138;2023-06-26T07:11:26;8.70;;;4.28;;
41217;SDS011;26950;50.960;7.138;2023-06-26T07:13:52;11.65;;;4.38;;
41217;SDS011;26950;50.960;7.138;2023-06-26T07:16:19;11.15;;;4.72;;
41217;SDS011;26950;50.960;7.138;2023-06-26T07:18:45;9.57;;;4.22;;
41217;SDS011;26950;50.960;7.138;2023-06-26T07:21:12;11.93;;;4.35;;
41217;SDS011;26950;50.960;7.138;2023-06-26T07:23:38;7.43;;;4.15;;
41217;SDS011;26950;50.960;7.138;2023-06-26T07:26:06;8.32;;;4.25;;
41217;SDS011;26950;50.960;7.138;2023-06-26T07:28:35;13.55;;;4.70;;
41217;SDS011;26950;50.960;7.138;2023-06-26T07:31:03;9.35;;;4.75;;
41217;SDS011;26950;50.960;7.138;2023-06-26T07:33:29;8.88;;;4.18;;
41217;SDS011;26950;50.960;7.138;2023-06-26T07:35:56;9.88;;;4.53;;
41217;SDS011;26950;50.960;7.138;2023-06-26T07:38:22;10.65;;;4.93;;
41217;SDS011;26950;50.960;7.138;2023-06-26T07:40:48;9.85;;;5.05;;
41217;SDS011;26950;50.960;7.138;2023-06-26T07:43:17;11.40;;;5.30;;
41217;SDS011;26950;50.960;7.138;2023-06-26T07:45:43;10.90;;;5.25;;
41217;SDS011;26950;50.960;7.138;2023-06-26T07:48:10;8.82;;;5.45;;
41217;SDS011;26950;50.960;7.138;2023-06-26T07:50:37;12.00;;;6.07;;
41217;SDS011;26950;50.960;7.138;2023-06-26T07:53:03;10.75;;;6.03;;
41217;SDS011;26950;50.960;7.138;2023-06-26T07:55:30;12.02;;;7.13;;
41217;SDS011;26950;50.960;7.138;2023-06-26T07:57:57;20.45;;;7.95;;
41217;SDS011;26950;50.960;7.138;2023-06-26T08:00:24;14.13;;;7.53;;
41217;SDS011;26950;50.960;7.138;2023-06-26T08:02:51;12.73;;;8.30;;
41217;SDS011;26950;50.960;7.138;2023-06-26T08:05:18;14.80;;;6.95;;
41217;SDS011;26950;50.960;7.138;2023-06-26T08:07:44;10.90;;;6.70;;
41217;SDS011;26950;50.960;7.138;2023-06-26T08:10:11;13.82;;;8.40;;
41217;SDS011;26950;50.960;7.138;2023-06-26T08:12:37;13.50;;;7.60;;
41217;SDS011;26950;50.960;7.138;2023-06-26T08:15:05;12.07;;;7.38;;
41217;SDS011;26950;50.960;7.138;2023-06-26T08:17:34;16.90;;;6.70;;
41217;SDS011;26950;50.960;7.138;2023-06-26T08:20:01;14.55;;;5.93;;
41217;SDS011;26950;50.960;7.138;2023-06-26T08:22:27;12.70;;;5.15;;
41217;SDS011;26950;50.960;7.138;2023-06-26T08:24:53;10.88;;;4.80;;
41217;SDS011;26950;50.960;7.138;2023-06-26T08:27:21;8.18;;;4.65;;
41217;SDS011;26950;50.960;7.138;2023-06-26T08:29:47;10.88;;;4.35;;
41217;SDS011;26950;50.960;7.138;2023-06-26T08:32:14;10.43;;;4.57;;
41217;SDS011;26950;50.960;7.138;2023-06-26T08:34:42;14.32;;;5.60;;
41217;SDS011;26950;50.960;7.138;2023-06-26T08:37:08;9.32;;;5.18;;
41217;SDS011;26950;50.960;7.138;2023-06-26T08:39:35;10.93;;;5.22;;
41217;SDS011;26950;50.960;7.138;2023-06-26T08:42:01;11.50;;;4.78;;
41217;SDS011;26950;50.960;7.138;2023-06-26T08:44:28;13.52;;;5.38;;
41217;SDS011;26950;50.960;7.138;2023-06-26T08:46:55;11.60;;;5.07;;
41217;SDS011;26950;50.960;7.138;2023-06-26T08:49:24;9.55;;;5.07;;
41217;SDS011;26950;50.960;7.138;2023-06-26T08:51:57;9.77;;;4.93;;
41217;SDS011;26950;50.960;7.138;2023-06-26T08:54:31;14.18;;;4.95;;
41217;SDS011;26950;50.960;7.138;2023-06-26T08:57:02;13.13;;;5.57;;
41217;SDS011;26950;50.960;7.138;2023-06-26T08:59:31;10.20;;;5.78;;
41217;SDS011;26950;50.960;7.138;2023-06-26T09:01:58;12.52;;;5.85;;
41217;SDS011;26950;50.960;7.138;2023-06-26T09:04:25;13.77;;;5.38;;
41217;SDS011;26950;50.960;7.138;2023-06-26T09:06:51;10.38;;;5.72;;
41217;SDS011;26950;50.960;7.138;2023-06-26T09:09:19;11.63;;;5.20;;
41217;SDS011;26950;50.960;7.138;2023-06-26T09:11:46;8.73;;;5.32;;
41217;SDS011;26950;50.960;7.138;2023-06-26T09:14:13;10.45;;;6.20;;
41217;SDS011;26950;50.960;7.138;2023-06-26T09:16:40;10.68;;;5.45;;
41217;SDS011;26950;50.960;7.138;2023-06-26T09:19:08;11.13;;;5.55;;
41217;SDS011;26950;50.960;7.138;2023-06-26T09:21:36;9.90;;;5.47;;
41217;SDS011;26950;50.960;7.138;2023-06-26T09:24:04;12.70;;;4.75;;
41217;SDS011;26950;50.960;7.138;2023-06-26T09:26:34;10.68;;;4.70;;
41217;SDS011;26950;50.960;7.138;2023-06-26T09:29:01;8.50;;;4.28;;
41217;SDS011;26950;50.960;7.138;2023-06-26T09:31:28;10.98;;;5.10;;
41217;SDS011;26950;50.960;7.138;2023-06-26T09:33:55;10.27;;;5.13;;
41217;SDS011;26950;50.960;7.138;2023-06-26T09:36:26;10.27;;;4.10;;
41217;SDS011;26950;50.960;7.138;2023-06-26T09:38:54;9.77;;;4.07;;
41217;SDS011;26950;50.960;7.138;2023-06-26T09:41:20;9.32;;;3.95;;
41217;SDS011;26950;50.960;7.138;2023-06-26T09:43:48;11.00;;;4.43;;
41217;SDS011;26950;50.960;7.138;2023-06-26T09:46:16;10.00;;;4.20;;
41217;SDS011;26950;50.960;7.138;2023-06-26T09:48:43;9.27;;;4.22;;
41217;SDS011;26950;50.960;7.138;2023-06-26T09:51:10;11.85;;;4.30;;
41217;SDS011;26950;50.960;7.138;2023-06-26T09:53:36;10.45;;;3.88;;
41217;SDS011;26950;50.960;7.138;2023-06-26T09:56:05;9.13;;;3.70;;
41217;SDS011;26950;50.960;7.138;2023-06-26T09:58:32;10.80;;;3.75;;
41217;SDS011;26950;50.960;7.138;2023-06-26T10:01:01;10.75;;;4.10;;
41217;SDS011;26950;50.960;7.138;2023-06-26T10:03:28;12.27;;;3.50;;
41217;SDS011;26950;50.960;7.138;2023-06-26T10:05:54;10.85;;;4.05;;
41217;SDS011;26950;50.960;7.138;2023-06-26T10:08:21;12.15;;;3.97;;
41217;SDS011;26950;50.960;7.138;2023-06-26T10:10:48;7.05;;;3.13;;
41217;SDS011;26950;50.960;7.138;2023-06-26T10:13:15;9.02;;;3.88;;
41217;SDS011;26950;50.960;7.138;2023-06-26T10:15:47;9.98;;;4.07;;
41217;SDS011;26950;50.960;7.138;2023-06-26T10:18:17;10.48;;;3.67;;
41217;SDS011;26950;50.960;7.138;2023-06-26T10:20:45;14.55;;;3.90;;
41217;SDS011;26950;50.960;7.138;2023-06-26T10:23:14;9.48;;;3.55;;
41217;SDS011;26950;50.960;7.138;2023-06-26T10:25:42;9.35;;;3.53;;
41217;SDS011;26950;50.960;7.138;2023-06-26T10:28:12;9.88;;;3.45;;
41217;SDS011;26950;50.960;7.138;2023-06-26T10:30:39;9.23;;;3.50;;
41217;SDS011;26950;50.960;7.138;2023-06-26T10:33:08;11.57;;;3.28;;
41217;SDS011;26950;50.960;7.138;2023-06-26T10:35:42;12.60;;;3.53;;
41217;SDS011;26950;50.960;7.138;2023-06-26T10:38:09;14.88;;;3.70;;
41217;SDS011;26950;50.960;7.138;2023-06-26T10:40:39;15.68;;;3.70;;
41217;SDS011;26950;50.960;7.138;2023-06-26T10:43:07;6.78;;;3.10;;
41217;SDS011;26950;50.960;7.138;2023-06-26T10:45:35;10.02;;;3.55;;
41217;SDS011;26950;50.960;7.138;2023-06-26T10:48:02;8.63;;;3.10;;
41217;SDS011;26950;50.960;7.138;2023-06-26T10:50:29;10.85;;;3.00;;
41217;SDS011;26950;50.960;7.138;2023-06-26T10:53:14;7.97;;;2.90;;
41217;SDS011;26950;50.960;7.138;2023-06-26T10:55:48;8.07;;;2.78;;
41217;SDS011;26950;50.960;7.138;2023-06-26T10:58:26;8.77;;;3.22;;
41217;SDS011;26950;50.960;7.138;2023-06-26T11:01:17;7.00;;;3.10;;
41217;SDS011;26950;50.960;7.138;2023-06-26T11:03:46;6.88;;;3.10;;
41217;SDS011;26950;50.960;7.138;2023-06-26T11:06:15;9.20;;;2.80;;
41217;SDS011;26950;50.960;7.138;2023-06-26T11:08:45;6.18;;;2.65;;
41217;SDS011;26950;50.960;7.138;2023-06-26T11:11:15;7.47;;;2.42;;
41217;SDS011;26950;50.960;7.138;2023-06-26T11:13:42;6.18;;;2.10;;
41217;SDS011;26950;50.960;7.138;2023-06-26T11:16:10;7.93;;;2.92;;
41217;SDS011;26950;50.960;7.138;2023-06-26T11:18:37;6.50;;;2.60;;
41217;SDS011;26950;50.960;7.138;2023-06-26T11:21:05;11.27;;;2.60;;
41217;SDS011;26950;50.960;7.138;2023-06-26T11:23:32;6.68;;;2.38;;
41217;SDS011;26950;50.960;7.138;2023-06-26T11:28:47;5.13;;;2.28;;
41217;SDS011;26950;50.960;7.138;2023-06-26T11:31:23;7.07;;;2.17;;
41217;SDS011;26950;50.960;7.138;2023-06-26T11:33:51;6.85;;;2.40;;
41217;SDS011;26950;50.960;7.138;2023-06-26T11:36:18;7.93;;;2.67;;
41217;SDS011;26950;50.960;7.138;2023-06-26T11:38:45;6.00;;;2.40;;
41217;SDS011;26950;50.960;7.138;2023-06-26T11:41:17;4.97;;;2.35;;
41217;SDS011;26950;50.960;7.138;2023-06-26T11:43:44;6.47;;;2.38;;
41217;SDS011;26950;50.960;7.138;2023-06-26T11:46:10;7.82;;;2.00;;
41217;SDS011;26950;50.960;7.138;2023-06-26T11:48:37;6.35;;;2.47;;
41217;SDS011;26950;50.960;7.138;2023-06-26T11:51:04;5.50;;;2.20;;
41217;SDS011;26950;50.960;7.138;2023-06-26T11:53:30;6.03;;;2.20;;
41217;SDS011;26950;50.960;7.138;2023-06-26T11:55:57;5.07;;;2.25;;
41217;SDS011;26950;50.960;7.138;2023-06-26T11:58:24;8.13;;;2.88;;
41217;SDS011;26950;50.960;7.138;2023-06-26T12:00:51;7.03;;;2.90;;
41217;SDS011;26950;50.960;7.138;2023-06-26T12:03:17;8.63;;;2.40;;
41217;SDS011;26950;50.960;7.138;2023-06-26T12:05:44;11.20;;;2.60;;
41217;SDS011;26950;50.960;7.138;2023-06-26T12:08:12;9.35;;;2.67;;
41217;SDS011;26950;50.960;7.138;2023-06-26T12:10:38;6.90;;;2.10;;
41217;SDS011;26950;50.960;7.138;2023-06-26T12:13:05;6.47;;;2.08;;
41217;SDS011;26950;50.960;7.138;2023-06-26T12:15:35;7.13;;;2.10;;
41217;SDS011;26950;50.960;7.138;2023-06-26T12:18:07;7.38;;;2.40;;
41217;SDS011;26950;50.960;7.138;2023-06-26T12:20:39;6.90;;;2.38;;
41217;SDS011;26950;50.960;7.138;2023-06-26T12:23:11;6.38;;;2.45;;
41217;SDS011;26950;50.960;7.138;2023-06-26T12:25:38;5.47;;;2.00;;
41217;SDS011;26950;50.960;7.138;2023-06-26T12:28:14;8.77;;;2.30;;
41217;SDS011;26950;50.960;7.138;2023-06-26T12:30:46;10.10;;;2.25;;
41217;SDS011;26950;50.960;7.138;2023-06-26T12:33:13;6.32;;;1.85;;
41217;SDS011;26950;50.960;7.138;2023-06-26T12:35:41;10.52;;;2.38;;
41217;SDS011;26950;50.960;7.138;2023-06-26T12:38:08;9.55;;;2.38;;
41217;SDS011;26950;50.960;7.138;2023-06-26T12:40:44;6.45;;;2.33;;
41217;SDS011;26950;50.960;7.138;2023-06-26T12:43:11;8.15;;;2.15;;
41217;SDS011;26950;50.960;7.138;2023-06-26T12:45:49;7.07;;;2.20;;
41217;SDS011;26950;50.960;7.138;2023-06-26T12:48:20;9.98;;;2.42;;
41217;SDS011;26950;50.960;7.138;2023-06-26T12:50:47;9.75;;;2.13;;
41217;SDS011;26950;50.960;7.138;2023-06-26T12:53:15;7.70;;;1.90;;
41217;SDS011;26950;50.960;7.138;2023-06-26T12:55:42;10.60;;;2.25;;
41217;SDS011;26950;50.960;7.138;2023-06-26T12:58:08;10.75;;;2.05;;
41217;SDS011;26950;50.960;7.138;2023-06-26T13:00:35;10.80;;;2.22;;
41217;SDS011;26950;50.960;7.138;2023-06-26T13:03:03;7.97;;;2.33;;
41217;SDS011;26950;50.960;7.138;2023-06-26T13:05:30;8.65;;;2.20;;
41217;SDS011;26950;50.960;7.138;2023-06-26T13:07:56;10.63;;;2.20;;
41217;SDS011;26950;50.960;7.138;2023-06-26T13:10:25;6.80;;;2.25;;
41217;SDS011;26950;50.960;7.138;2023-06-26T13:12:53;5.72;;;1.90;;
41217;SDS011;26950;50.960;7.138;2023-06-26T13:15:20;6.05;;;1.80;;
41217;SDS011;26950;50.960;7.138;2023-06-26T13:17:46;6.10;;;1.73;;
41217;SDS011;26950;50.960;7.138;2023-06-26T13:20:14;7.47;;;1.80;;
41217;SDS011;26950;50.960;7.138;2023-06-26T13:22:41;9.90;;;1.45;;
41217;SDS011;26950;50.960;7.138;2023-06-26T13:25:08;6.72;;;1.80;;
41217;SDS011;26950;50.960;7.138;2023-06-26T13:27:34;10.13;;;2.00;;
41217;SDS011;26950;50.960;7.138;2023-06-26T13:30:01;7.10;;;1.73;;
41217;SDS011;26950;50.960;7.138;2023-06-26T13:32:28;12.13;;;1.98;;
41217;SDS011;26950;50.960;7.138;2023-06-26T13:34:54;6.70;;;1.50;;
41217;SDS011;26950;50.960;7.138;2023-06-26T13:37:23;11.77;;;2.08;;
41217;SDS011;26950;50.960;7.138;2023-06-26T13:39:49;8.80;;;1.73;;
41217;SDS011;26950;50.960;7.138;2023-06-26T13:42:16;5.28;;;1.20;;
41217;SDS011;26950;50.960;7.138;2023-06-26T13:44:42;4.05;;;1.50;;
41217;SDS011;26950;50.960;7.138;2023-06-26T13:47:11;6.93;;;1.60;;
41217;SDS011;26950;50.960;7.138;2023-06-26T13:49:38;4.95;;;1.60;;
41217;SDS011;26950;50.960;7.138;2023-06-26T13:52:05;6.95;;;1.50;;
41217;SDS011;26950;50.960;7.138;2023-06-26T13:54:34;4.22;;;1.20;;
41217;SDS011;26950;50.960;7.138;2023-06-26T13:57:01;6.25;;;1.58;;
41217;SDS011;26950;50.960;7.138;2023-06-26T13:59:30;5.88;;;1.60;;
41217;SDS011;26950;50.960;7.138;2023-06-26T14:01:57;7.47;;;1.30;;
41217;SDS011;26950;50.960;7.138;2023-06-26T14:04:24;6.97;;;1.63;;
41217;SDS011;26950;50.960;7.138;2023-06-26T14:06:50;6.43;;;1.42;;
41217;SDS011;26950;50.960;7.138;2023-06-26T14:09:17;3.15;;;1.30;;
41217;SDS011;26950;50.960;7.138;2023-06-26T14:11:45;8.07;;;1.33;;
41217;SDS011;26950;50.960;7.138;2023-06-26T14:14:11;10.40;;;1.60;;
41217;SDS011;26950;50.960;7.138;2023-06-26T14:16:38;9.80;;;1.45;;
41217;SDS011;26950;50.960;7.138;2023-06-26T14:19:05;3.63;;;1.50;;
41217;SDS011;26950;50.960;7.138;2023-06-26T14:21:32;7.35;;;1.40;;
41217;SDS011;26950;50.960;7.138;2023-06-26T14:23:59;5.63;;;1.48;;
41217;SDS011;26950;50.960;7.138;2023-06-26T14:26:27;8.32;;;1.80;;
41217;SDS011;26950;50.960;7.138;2023-06-26T14:28:56;7.53;;;1.90;;
41217;SDS011;26950;50.960;7.138;2023-06-26T14:31:22;9.13;;;1.98;;
41217;SDS011;26950;50.960;7.138;2023-06-26T14:33:49;5.78;;;1.50;;
41217;SDS011;26950;50.960;7.138;2023-06-26T14:36:16;4.97;;;1.45;;
41217;SDS011;26950;50.960;7.138;2023-06-26T14:38:42;9.95;;;1.73;;
41217;SDS011;26950;50.960;7.138;2023-06-26T14:41:09;4.90;;;1.20;;
41217;SDS011;26950;50.960;7.138;2023-06-26T14:43:35;8.77;;;1.65;;
41217;SDS011;26950;50.960;7.138;2023-06-26T14:46:03;5.18;;;1.52;;
41217;SDS011;26950;50.960;7.138;2023-06-26T14:48:29;4.07;;;1.33;;